createdAt,value
2022-08-29T00:01:59.210Z,83.90
2022-08-29T00:04:26.088Z,83.70
2022-08-29T00:06:52.809Z,83.70
2022-08-29T00:09:19.555Z,84.30
2022-08-29T00:11:46.626Z,84.40
2022-08-29T00:14:20.898Z,83.70
2022-08-29T00:16:49.962Z,83.80
2022-08-29T00:19:16.758Z,84.70
2022-08-29T00:21:43.377Z,85.60
2022-08-29T00:24:10.231Z,86.30
2022-08-29T00:26:36.880Z,86.20
2022-08-29T00:29:03.467Z,86.70
2022-08-29T00:31:30.153Z,87.10
2022-08-29T00:33:57.732Z,86.90
2022-08-29T00:36:25.115Z,87.60
2022-08-29T00:38:52.917Z,88.20
2022-08-29T00:41:19.744Z,88.70
2022-08-29T00:43:46.915Z,88.30
2022-08-29T00:46:16.323Z,88.30
2022-08-29T00:48:44.578Z,87.50
2022-08-29T00:51:14.976Z,87.70
2022-08-29T00:53:43.466Z,88.70
2022-08-29T00:56:12.700Z,89.30
2022-08-29T00:58:44.834Z,90.00
2022-08-29T01:01:11.439Z,88.70
2022-08-29T01:03:42.717Z,88.50
2022-08-29T01:06:10.447Z,88.60
2022-08-29T01:08:37.058Z,88.40
2022-08-29T01:11:22.454Z,88.00
2022-08-29T01:13:51.028Z,88.10
2022-08-29T01:16:19.147Z,88.40
2022-08-29T01:18:47.366Z,88.70
2022-08-29T01:21:23.800Z,88.70
2022-08-29T01:23:54.968Z,88.80
2022-08-29T01:26:22.978Z,89.00
2022-08-29T01:28:51.775Z,88.70
2022-08-29T01:31:37.866Z,88.90
2022-08-29T01:34:12.225Z,88.30
2022-08-29T01:36:43.251Z,87.90
2022-08-29T01:39:10.185Z,88.30
2022-08-29T01:41:36.756Z,89.00
2022-08-29T01:44:09.118Z,89.30
2022-08-29T01:46:35.743Z,90.00
2022-08-29T01:49:03.392Z,90.30
2022-08-29T01:51:30.180Z,90.40
2022-08-29T01:53:56.739Z,90.40
2022-08-29T01:56:25.488Z,90.40
2022-08-29T01:58:52.901Z,90.10
2022-08-29T02:01:22.380Z,90.00
2022-08-29T02:03:52.053Z,90.00
2022-08-29T02:06:18.833Z,90.30
2022-08-29T02:08:45.765Z,90.30
2022-08-29T02:11:12.974Z,90.30
2022-08-29T02:13:41.162Z,90.10
2022-08-29T02:16:07.774Z,89.70
2022-08-29T02:18:34.647Z,89.30
2022-08-29T02:21:01.801Z,89.20
2022-08-29T02:23:31.115Z,89.40
2022-08-29T02:25:58.620Z,89.50
2022-08-29T02:28:25.182Z,89.50
2022-08-29T02:30:56.575Z,89.10
2022-08-29T02:33:24.447Z,88.80
2022-08-29T02:35:51.811Z,89.10
2022-08-29T02:38:18.425Z,88.60
2022-08-29T02:40:45.544Z,89.70
2022-08-29T02:43:12.672Z,90.20
2022-08-29T02:45:41.181Z,90.20
2022-08-29T02:48:08.327Z,90.20
2022-08-29T02:50:35.080Z,90.20
2022-08-29T02:53:01.709Z,90.20
2022-08-29T02:55:28.317Z,90.20
2022-08-29T02:57:55.034Z,90.20
2022-08-29T03:00:24.605Z,90.20
2022-08-29T03:02:51.969Z,90.20
2022-08-29T03:05:20.403Z,90.10
2022-08-29T03:07:50.808Z,90.20
2022-08-29T03:10:20.113Z,90.20
2022-08-29T03:12:47.709Z,90.20
2022-08-29T03:15:14.420Z,90.10
2022-08-29T03:17:41.142Z,90.10
2022-08-29T03:20:08.099Z,90.10
2022-08-29T03:22:34.757Z,90.20
2022-08-29T03:25:02.939Z,90.20
2022-08-29T03:27:30.336Z,90.60
2022-08-29T03:29:57.001Z,91.00
2022-08-29T03:32:24.043Z,91.40
2022-08-29T03:34:50.626Z,91.30
2022-08-29T03:37:17.334Z,91.40
2022-08-29T03:39:43.908Z,91.20
2022-08-29T03:42:11.400Z,91.10
2022-08-29T03:44:39.446Z,90.80
2022-08-29T03:47:06.274Z,90.90
2022-08-29T03:49:33.362Z,90.80
2022-08-29T03:52:00.245Z,90.70
2022-08-29T03:54:27.489Z,90.60
2022-08-29T03:56:54.085Z,90.50
2022-08-29T03:59:20.635Z,90.80
2022-08-29T04:01:48.188Z,90.90
2022-08-29T04:04:36.051Z,90.80
2022-08-29T04:07:03.708Z,90.50
2022-08-29T04:09:30.358Z,90.50
2022-08-29T04:11:56.977Z,90.60
2022-08-29T04:14:23.595Z,90.70
2022-08-29T04:16:50.206Z,90.50
2022-08-29T04:19:17.680Z,90.10
2022-08-29T04:21:45.251Z,90.10
2022-08-29T04:24:12.790Z,90.00
2022-08-29T04:26:41.039Z,90.10
2022-08-29T04:29:08.934Z,90.50
2022-08-29T04:31:36.553Z,90.90
2022-08-29T04:34:04.177Z,91.40
2022-08-29T04:36:30.739Z,91.60
2022-08-29T04:38:57.820Z,91.90
2022-08-29T04:41:24.407Z,91.90
2022-08-29T04:43:51.027Z,91.90
2022-08-29T04:46:24.344Z,91.90
2022-08-29T04:48:51.926Z,91.90
2022-08-29T04:51:18.511Z,91.80
2022-08-29T04:53:45.072Z,91.50
2022-08-29T04:56:12.828Z,91.60
2022-08-29T04:58:41.048Z,91.60
2022-08-29T05:01:14.088Z,91.50
2022-08-29T05:03:40.697Z,91.30
2022-08-29T05:06:08.634Z,91.10
2022-08-29T05:08:36.455Z,91.00
2022-08-29T05:11:03.787Z,91.00
2022-08-29T05:13:31.030Z,90.80
2022-08-29T05:15:57.684Z,90.80
2022-08-29T05:18:24.497Z,90.70
2022-08-29T05:20:51.316Z,90.90
2022-08-29T05:23:18.269Z,91.20
2022-08-29T05:25:45.413Z,91.10
2022-08-29T05:28:12.341Z,90.40
2022-08-29T05:30:41.900Z,90.50
2022-08-29T05:33:08.578Z,89.70
2022-08-29T05:35:35.382Z,87.80
2022-08-29T05:38:07.142Z,85.50
2022-08-29T05:40:36.177Z,82.60
2022-08-29T05:43:02.837Z,79.10
2022-08-29T05:45:29.946Z,75.60
2022-08-29T05:47:56.781Z,72.90
2022-08-29T05:50:23.499Z,69.90
2022-08-29T05:52:50.064Z,67.30
2022-08-29T05:55:16.664Z,65.60
2022-08-29T05:57:43.232Z,63.00
2022-08-29T06:00:10.270Z,60.70
2022-08-29T06:02:36.890Z,59.00
2022-08-29T06:05:04.670Z,52.20
2022-08-29T06:07:33.076Z,48.60
2022-08-29T06:10:03.605Z,48.80
2022-08-29T06:12:30.715Z,45.70
2022-08-29T06:14:57.358Z,39.70
2022-08-29T06:17:23.899Z,39.60
2022-08-29T06:19:51.444Z,38.00
2022-08-29T06:22:19.727Z,39.30
2022-08-29T06:24:46.330Z,38.40
2022-08-29T06:27:14.117Z,27.70
2022-08-29T06:29:43.013Z,25.10
2022-08-29T06:32:09.953Z,24.30
2022-08-29T06:34:36.513Z,21.00
2022-08-29T06:37:03.413Z,17.20
2022-08-29T06:39:30.216Z,15.60
2022-08-29T06:41:56.811Z,14.50
2022-08-29T06:44:23.854Z,13.50
2022-08-29T06:46:50.806Z,9.90
2022-08-29T06:49:18.431Z,10.20
2022-08-29T06:51:49.009Z,7.40
2022-08-29T06:54:16.441Z,5.60
2022-08-29T06:56:43.511Z,3.30
2022-08-29T06:59:10.260Z,1.00
2022-08-29T07:01:37.458Z,1.00
2022-08-29T07:04:04.341Z,1.00
2022-08-29T07:06:31.495Z,1.00
2022-08-29T07:08:58.475Z,1.00
2022-08-29T07:11:26.110Z,1.00
2022-08-29T07:13:52.835Z,1.00
2022-08-29T07:16:19.668Z,1.00
2022-08-29T07:18:46.518Z,1.00
2022-08-29T07:21:20.323Z,1.00
2022-08-29T07:23:47.809Z,1.00
2022-08-29T07:26:16.182Z,1.00
2022-08-29T07:28:47.144Z,1.00
2022-08-29T07:31:13.997Z,1.00
2022-08-29T07:33:40.598Z,1.00
2022-08-29T07:36:07.359Z,1.00
2022-08-29T07:38:34.287Z,1.00
2022-08-29T07:41:07.107Z,1.00
2022-08-29T07:43:34.201Z,1.00
2022-08-29T07:46:07.991Z,1.00
2022-08-29T07:48:34.609Z,1.00
2022-08-29T07:51:01.349Z,1.00
2022-08-29T07:53:28.107Z,1.00
2022-08-29T07:55:54.692Z,1.00
2022-08-29T07:58:21.394Z,1.00
2022-08-29T08:00:48.134Z,1.00
2022-08-29T08:03:16.091Z,1.00
2022-08-29T08:05:42.860Z,1.00
2022-08-29T08:08:14.932Z,1.00
2022-08-29T08:10:42.557Z,1.00
2022-08-29T08:13:09.192Z,1.00
2022-08-29T08:15:37.372Z,1.00
2022-08-29T08:18:04.051Z,1.00
2022-08-29T08:20:31.042Z,1.00
2022-08-29T08:22:58.511Z,1.00
2022-08-29T08:25:26.134Z,1.00
2022-08-29T08:27:53.177Z,1.00
2022-08-29T08:30:20.349Z,1.00
2022-08-29T08:32:49.560Z,1.00
2022-08-29T08:35:22.526Z,1.00
2022-08-29T08:37:49.764Z,1.00
2022-08-29T08:40:19.863Z,1.00
2022-08-29T08:42:46.531Z,1.00
2022-08-29T08:45:20.801Z,1.00
2022-08-29T08:47:49.991Z,1.00
2022-08-29T08:50:21.760Z,1.00
2022-08-29T08:52:59.417Z,1.00
2022-08-29T08:55:34.935Z,1.00
2022-08-29T08:58:28.794Z,1.00
2022-08-29T09:01:04.773Z,1.00
2022-08-29T09:03:47.004Z,1.00
2022-08-29T09:06:21.000Z,1.00
2022-08-29T09:08:53.737Z,1.00
2022-08-29T09:11:29.228Z,1.00
2022-08-29T09:14:02.825Z,1.00
2022-08-29T09:16:40.729Z,1.00
2022-08-29T09:19:09.453Z,1.00
2022-08-29T09:21:45.705Z,1.00
2022-08-29T09:24:35.801Z,1.00
2022-08-29T09:27:02.765Z,1.00
2022-08-29T09:29:30.822Z,1.00
2022-08-29T09:32:16.670Z,1.00
2022-08-29T09:35:07.849Z,1.00
2022-08-29T09:37:35.002Z,1.00
2022-08-29T09:40:09.929Z,1.00
2022-08-29T09:42:39.630Z,1.00
2022-08-29T09:45:17.389Z,1.00
2022-08-29T09:47:44.264Z,1.00
2022-08-29T09:50:10.909Z,1.00
2022-08-29T09:52:39.669Z,1.00
2022-08-29T09:55:28.466Z,1.00
2022-08-29T09:58:19.068Z,1.00
2022-08-29T10:01:06.583Z,1.00
2022-08-29T10:03:34.944Z,1.00
2022-08-29T10:06:07.904Z,1.00
2022-08-29T10:08:36.262Z,1.00
2022-08-29T10:11:05.712Z,1.00
2022-08-29T10:13:42.214Z,1.00
2022-08-29T10:16:13.438Z,1.00
2022-08-29T10:18:58.824Z,1.00
2022-08-29T10:21:25.425Z,1.00
2022-08-29T10:24:03.490Z,1.00
2022-08-29T10:26:30.568Z,1.00
2022-08-29T10:29:01.423Z,1.00
2022-08-29T10:31:38.214Z,1.00
2022-08-29T10:34:30.150Z,1.00
2022-08-29T10:37:10.587Z,1.00
2022-08-29T10:39:43.422Z,1.00
2022-08-29T10:42:16.029Z,1.00
2022-08-29T10:45:05.886Z,1.00
2022-08-29T10:47:33.830Z,1.00
2022-08-29T10:50:03.210Z,1.00
2022-08-29T10:52:35.638Z,1.00
2022-08-29T10:55:02.183Z,1.00
2022-08-29T10:57:28.744Z,1.00
2022-08-29T11:00:02.428Z,1.00
2022-08-29T11:02:38.723Z,1.00
2022-08-29T11:05:15.207Z,1.00
2022-08-29T11:07:53.402Z,1.00
2022-08-29T11:10:23.040Z,1.00
2022-08-29T11:12:58.339Z,1.00
2022-08-29T11:15:48.382Z,1.00
2022-08-29T11:18:22.370Z,1.00
2022-08-29T11:20:51.542Z,1.00
2022-08-29T11:23:37.274Z,1.00
2022-08-29T11:26:13.190Z,1.00
2022-08-29T11:29:00.031Z,1.00
2022-08-29T11:31:37.599Z,1.00
2022-08-29T11:34:07.353Z,1.00
2022-08-29T11:36:50.415Z,1.00
2022-08-29T11:39:37.259Z,1.00
2022-08-29T11:42:06.165Z,1.00
2022-08-29T11:44:41.033Z,1.00
2022-08-29T11:47:26.622Z,1.00
2022-08-29T11:49:54.101Z,1.00
2022-08-29T11:52:23.751Z,1.00
2022-08-29T11:54:52.090Z,1.00
2022-08-29T11:57:18.630Z,1.00
2022-08-29T11:59:45.148Z,1.00
2022-08-29T12:02:31.693Z,1.00
2022-08-29T12:05:16.652Z,1.00
2022-08-29T12:07:51.956Z,1.00
2022-08-29T12:10:23.516Z,1.00
2022-08-29T12:13:03.363Z,1.00
2022-08-29T12:15:29.926Z,1.00
2022-08-29T12:18:03.209Z,1.00
2022-08-29T12:20:30.312Z,1.00
2022-08-29T12:23:17.504Z,1.00
2022-08-29T12:25:44.920Z,1.00
2022-08-29T12:28:17.764Z,1.00
2022-08-29T12:30:46.674Z,1.00
2022-08-29T12:33:13.383Z,1.00
2022-08-29T12:35:55.015Z,1.00
2022-08-29T12:38:28.659Z,1.00
2022-08-29T12:40:55.187Z,1.00
2022-08-29T12:43:30.978Z,1.00
2022-08-29T12:45:57.892Z,1.00
2022-08-29T12:48:32.617Z,1.00
2022-08-29T12:51:00.717Z,1.00
2022-08-29T12:53:30.154Z,1.00
2022-08-29T12:55:59.086Z,1.00
2022-08-29T12:58:39.912Z,1.00
2022-08-29T13:01:09.322Z,1.00
2022-08-29T13:03:36.409Z,1.00
2022-08-29T13:06:05.234Z,1.00
2022-08-29T13:08:33.263Z,1.00
2022-08-29T13:11:01.898Z,1.00
2022-08-29T13:13:28.966Z,1.00
2022-08-29T13:16:01.294Z,1.00
2022-08-29T13:18:28.887Z,1.00
2022-08-29T13:21:03.796Z,1.00
2022-08-29T13:23:36.160Z,1.00
2022-08-29T13:26:05.922Z,1.00
2022-08-29T13:28:43.066Z,1.00
2022-08-29T13:31:15.858Z,1.00
2022-08-29T13:33:45.245Z,1.00
2022-08-29T13:36:26.972Z,1.00
2022-08-29T13:39:12.382Z,1.00
2022-08-29T13:41:39.016Z,1.00
2022-08-29T13:44:05.703Z,1.00
2022-08-29T13:46:32.369Z,1.00
2022-08-29T13:49:00.266Z,1.00
2022-08-29T13:51:27.051Z,1.00
2022-08-29T13:53:53.628Z,1.00
2022-08-29T13:56:31.977Z,1.00
2022-08-29T13:58:59.019Z,1.00
2022-08-29T14:02:08.544Z,1.00
2022-08-29T14:04:36.913Z,1.00
2022-08-29T14:06:59.162Z,1.00
2022-08-29T14:09:32.474Z,1.00
2022-08-29T14:11:59.333Z,1.00
2022-08-29T14:14:26.143Z,1.00
2022-08-29T14:16:53.768Z,1.00
2022-08-29T14:19:20.658Z,1.00
2022-08-29T14:21:47.237Z,1.00
2022-08-29T14:24:13.796Z,1.00
2022-08-29T14:26:40.359Z,1.00
2022-08-29T14:29:07.485Z,1.00
2022-08-29T14:31:34.055Z,1.00
2022-08-29T14:34:00.632Z,1.00
2022-08-29T14:36:29.622Z,1.00
2022-08-29T14:38:56.912Z,1.00
2022-08-29T14:41:23.735Z,1.00
2022-08-29T14:43:50.425Z,1.00
2022-08-29T14:46:17.105Z,1.00
2022-08-29T14:48:43.725Z,1.00
2022-08-29T14:51:10.661Z,1.00
2022-08-29T14:53:47.036Z,1.00
2022-08-29T14:56:44.514Z,1.00
2022-08-29T14:59:11.394Z,1.00
2022-08-29T15:01:38.523Z,1.00
2022-08-29T15:04:05.197Z,1.00
2022-08-29T15:06:33.730Z,1.00
2022-08-29T15:09:00.412Z,1.00
2022-08-29T15:11:27.060Z,1.00
2022-08-29T15:13:53.635Z,1.00
2022-08-29T15:16:20.310Z,1.00
2022-08-29T15:19:31.583Z,1.00
2022-08-29T15:21:33.535Z,1.00
2022-08-29T15:24:00.172Z,1.00
2022-08-29T15:26:26.766Z,1.00
2022-08-29T15:28:54.779Z,1.00
2022-08-29T15:31:22.137Z,1.00
2022-08-29T15:33:48.897Z,1.00
2022-08-29T15:36:15.435Z,1.00
2022-08-29T15:38:42.992Z,1.00
2022-08-29T15:41:09.568Z,1.00
2022-08-29T15:43:36.140Z,1.00
2022-08-29T15:46:02.851Z,1.00
2022-08-29T15:48:30.065Z,1.00
2022-08-29T15:50:56.625Z,1.00
2022-08-29T15:53:23.331Z,1.00
2022-08-29T15:55:49.973Z,1.00
2022-08-29T15:58:16.850Z,1.00
2022-08-29T16:00:43.578Z,1.00
2022-08-29T16:03:10.361Z,1.00
2022-08-29T16:05:39.113Z,1.00
2022-08-29T16:08:05.763Z,1.00
2022-08-29T16:10:32.580Z,1.00
2022-08-29T16:12:59.363Z,1.00
2022-08-29T16:15:27.781Z,1.00
2022-08-29T16:17:54.535Z,1.00
2022-08-29T16:20:21.624Z,1.00
2022-08-29T16:22:48.239Z,1.00
2022-08-29T16:25:15.036Z,1.00
2022-08-29T16:27:41.610Z,1.00
2022-08-29T16:30:10.131Z,1.00
2022-08-29T16:32:37.351Z,1.00
2022-08-29T16:35:04.240Z,1.00
2022-08-29T16:37:30.817Z,1.00
2022-08-29T16:39:58.563Z,1.00
2022-08-29T16:42:29.937Z,1.00
2022-08-29T16:44:57.368Z,1.00
2022-08-29T16:47:24.095Z,1.00
2022-08-29T16:49:50.759Z,1.00
2022-08-29T16:52:17.344Z,1.00
2022-08-29T16:54:43.964Z,1.00
2022-08-29T16:57:10.643Z,1.00
2022-08-29T16:59:37.400Z,1.00
2022-08-29T17:02:04.112Z,1.00
2022-08-29T17:04:30.768Z,1.00
2022-08-29T17:06:57.398Z,1.00
2022-08-29T17:09:24.523Z,1.00
2022-08-29T17:11:51.892Z,1.00
2022-08-29T17:14:19.199Z,1.00
2022-08-29T17:16:46.871Z,1.00
2022-08-29T17:19:14.753Z,1.00
2022-08-29T17:21:41.976Z,1.00
2022-08-29T17:24:08.748Z,1.00
2022-08-29T17:26:37.096Z,1.00
2022-08-29T17:29:08.624Z,1.00
2022-08-29T17:31:38.571Z,1.00
2022-08-29T17:34:06.645Z,1.00
2022-08-29T17:36:33.685Z,1.00
2022-08-29T17:39:00.790Z,1.00
2022-08-29T17:41:27.568Z,1.00
2022-08-29T17:43:55.772Z,1.00
2022-08-29T17:46:22.611Z,1.00
2022-08-29T17:48:49.328Z,1.00
2022-08-29T17:51:16.121Z,1.00
2022-08-29T17:53:43.087Z,1.00
2022-08-29T17:56:10.649Z,1.00
2022-08-29T17:58:37.251Z,1.00
2022-08-29T18:01:03.997Z,1.00
2022-08-29T18:03:30.627Z,1.00
2022-08-29T18:05:57.305Z,1.00
2022-08-29T18:08:23.992Z,1.00
2022-08-29T18:10:51.677Z,1.00
2022-08-29T18:13:21.589Z,1.00
2022-08-29T18:15:50.694Z,1.00
2022-08-29T18:18:19.700Z,1.00
2022-08-29T18:20:46.315Z,1.00
2022-08-29T18:23:12.926Z,1.00
2022-08-29T18:25:39.478Z,1.00
2022-08-29T18:28:08.282Z,1.00
2022-08-29T18:30:35.372Z,1.00
2022-08-29T18:33:02.079Z,1.00
2022-08-29T18:35:28.720Z,1.00
2022-08-29T18:37:55.315Z,1.00
2022-08-29T18:40:22.137Z,1.00
2022-08-29T18:42:48.807Z,1.00
2022-08-29T18:45:16.061Z,1.00
2022-08-29T18:47:42.675Z,1.00
2022-08-29T18:50:28.121Z,1.00
2022-08-29T18:52:54.984Z,1.00
2022-08-29T18:55:22.789Z,1.80
2022-08-29T18:57:49.793Z,3.30
2022-08-29T19:00:16.694Z,3.30
2022-08-29T19:02:43.383Z,3.80
2022-08-29T19:05:10.110Z,4.10
2022-08-29T19:07:36.744Z,4.90
2022-08-29T19:10:04.827Z,5.90
2022-08-29T19:12:31.603Z,8.90
2022-08-29T19:14:58.215Z,9.60
2022-08-29T19:17:24.819Z,10.50
2022-08-29T19:20:10.619Z,12.10
2022-08-29T19:22:39.298Z,13.50
2022-08-29T19:25:06.875Z,13.80
2022-08-29T19:27:43.110Z,14.00
2022-08-29T19:30:10.779Z,18.00
2022-08-29T19:32:37.356Z,20.70
2022-08-29T19:35:04.162Z,19.50
2022-08-29T19:37:31.026Z,21.20
2022-08-29T19:39:57.738Z,20.80
2022-08-29T19:42:24.391Z,22.80
2022-08-29T19:44:51.003Z,23.80
2022-08-29T19:47:17.822Z,24.70
2022-08-29T19:49:47.247Z,23.60
2022-08-29T19:52:15.205Z,22.70
2022-08-29T19:54:43.454Z,22.60
2022-08-29T19:57:10.256Z,22.70
2022-08-29T19:59:42.460Z,22.50
2022-08-29T20:02:10.614Z,22.90
2022-08-29T20:04:37.464Z,24.30
2022-08-29T20:07:05.248Z,25.30
2022-08-29T20:09:31.942Z,25.40
2022-08-29T20:11:59.196Z,27.10
2022-08-29T20:14:25.957Z,29.30
2022-08-29T20:16:52.577Z,27.00
2022-08-29T20:19:21.215Z,29.70
2022-08-29T20:21:48.382Z,30.00
2022-08-29T20:24:15.783Z,30.00
2022-08-29T20:26:44.324Z,31.60
2022-08-29T20:29:11.475Z,34.40
2022-08-29T20:31:38.547Z,34.30
2022-08-29T20:34:05.296Z,37.20
2022-08-29T20:36:50.769Z,37.20
2022-08-29T20:39:18.928Z,37.20
2022-08-29T20:41:50.083Z,38.60
2022-08-29T20:44:18.462Z,39.30
2022-08-29T20:46:45.142Z,41.80
2022-08-29T20:49:13.499Z,42.70
2022-08-29T20:51:42.359Z,44.00
2022-08-29T20:54:08.983Z,44.30
2022-08-29T20:56:35.639Z,44.90
2022-08-29T20:59:02.241Z,45.30
2022-08-29T21:01:28.826Z,48.10
2022-08-29T21:04:14.119Z,48.00
2022-08-29T21:06:47.646Z,48.00
2022-08-29T21:09:14.327Z,48.00
2022-08-29T21:11:41.014Z,48.00
2022-08-29T21:14:07.606Z,47.90
2022-08-29T21:16:36.243Z,47.90
2022-08-29T21:19:08.602Z,47.80
2022-08-29T21:21:39.079Z,49.50
2022-08-29T21:24:06.245Z,51.60
2022-08-29T21:26:33.139Z,52.00
2022-08-29T21:29:00.151Z,51.20
2022-08-29T21:31:27.236Z,51.60
2022-08-29T21:33:53.937Z,52.30
2022-08-29T21:36:21.809Z,52.90
2022-08-29T21:38:51.164Z,53.20
2022-08-29T21:41:18.023Z,53.20
2022-08-29T21:43:44.740Z,55.90
2022-08-29T21:46:18.322Z,58.40
2022-08-29T21:48:45.779Z,58.40
2022-08-29T21:51:13.812Z,57.10
2022-08-29T21:53:41.655Z,55.60
2022-08-29T21:56:08.432Z,58.20
2022-08-29T21:58:35.149Z,58.70
2022-08-29T22:01:01.775Z,58.20
2022-08-29T22:03:28.489Z,58.00
2022-08-29T22:05:55.314Z,58.00
2022-08-29T22:08:22.945Z,58.10
2022-08-29T22:10:49.619Z,59.50
2022-08-29T22:13:16.324Z,60.70
2022-08-29T22:16:01.755Z,61.10
2022-08-29T22:18:28.936Z,61.10
2022-08-29T22:20:58.210Z,60.70
2022-08-29T22:23:24.829Z,60.20
2022-08-29T22:25:51.970Z,60.10
2022-08-29T22:28:18.523Z,60.50
2022-08-29T22:30:45.251Z,61.50
2022-08-29T22:33:16.462Z,62.50
2022-08-29T22:35:43.516Z,62.50
2022-08-29T22:38:10.099Z,62.70
2022-08-29T22:40:36.792Z,63.90
2022-08-29T22:43:03.847Z,64.20
2022-08-29T22:45:30.431Z,64.80
2022-08-29T22:47:57.039Z,64.70
2022-08-29T22:50:24.800Z,66.80
2022-08-29T22:52:54.758Z,65.50
2022-08-29T22:57:47.501Z,66.70
2022-08-29T23:00:16.372Z,66.70
2022-08-29T23:02:43.311Z,66.70
2022-08-29T23:05:10.245Z,66.70
2022-08-29T23:07:37.076Z,68.00
2022-08-29T23:10:04.323Z,67.80
2022-08-29T23:12:31.053Z,67.50
2022-08-29T23:14:57.615Z,66.60
2022-08-29T23:17:24.227Z,67.20
2022-08-29T23:19:50.886Z,68.20
2022-08-29T23:22:17.451Z,69.60
2022-08-29T23:24:53.840Z,70.20
2022-08-29T23:27:26.338Z,70.90
2022-08-29T23:29:52.972Z,71.50
2022-08-29T23:32:19.587Z,72.00
2022-08-29T23:34:46.144Z,71.60
2022-08-29T23:37:12.698Z,69.80
2022-08-29T23:39:39.281Z,70.50
2022-08-29T23:42:06.119Z,71.60
2022-08-29T23:44:32.698Z,72.60
2022-08-29T23:46:59.302Z,72.40
2022-08-29T23:49:25.928Z,72.30
2022-08-29T23:51:52.593Z,71.30
2022-08-29T23:54:19.371Z,71.20
2022-08-29T23:56:45.936Z,72.10
2022-08-29T23:59:32.531Z,72.90
